createdAt,value
2023-03-24T00:01:34.651Z,11.90
2023-03-24T00:04:05.256Z,9.90
2023-03-24T00:06:35.152Z,11.10
2023-03-24T00:09:05.097Z,10.90
2023-03-24T00:11:59.033Z,12.70
2023-03-24T00:14:32.457Z,9.40
2023-03-24T00:17:01.950Z,11.70
2023-03-24T00:19:30.882Z,10.90
2023-03-24T00:22:01.692Z,11.20
2023-03-24T00:24:30.719Z,10.00
2023-03-24T00:27:03.730Z,9.80
2023-03-24T00:29:32.682Z,8.50
2023-03-24T00:32:02.012Z,11.60
2023-03-24T00:34:30.467Z,10.50
2023-03-24T00:36:58.975Z,9.80
2023-03-24T00:39:27.468Z,10.40
2023-03-24T00:41:59.105Z,8.50
2023-03-24T00:44:29.346Z,10.30
2023-03-24T00:46:57.940Z,8.90
2023-03-24T00:49:48.589Z,10.20
2023-03-24T00:52:23.237Z,9.10
2023-03-24T00:54:55.616Z,8.60
2023-03-24T00:57:26.597Z,12.90
2023-03-24T00:59:58.152Z,9.60
2023-03-24T01:02:29.426Z,11.40
2023-03-24T01:07:33.975Z,8.40
2023-03-24T01:10:02.942Z,10.80
2023-03-24T01:12:35.585Z,10.80
2023-03-24T01:15:09.002Z,11.30
2023-03-24T01:17:37.554Z,10.30
2023-03-24T01:20:09.030Z,7.90
2023-03-24T01:22:40.306Z,8.70
2023-03-24T01:25:12.019Z,8.20
2023-03-24T01:27:40.736Z,8.80
2023-03-24T01:30:12.623Z,10.10
2023-03-24T01:32:43.144Z,8.30
2023-03-24T01:35:12.083Z,9.60
2023-03-24T01:37:41.737Z,10.10
2023-03-24T01:40:18.162Z,9.70
2023-03-24T01:42:46.897Z,11.80
2023-03-24T01:45:40.728Z,9.80
2023-03-24T01:48:17.045Z,5.40
2023-03-24T01:50:52.043Z,8.50
2023-03-24T01:53:22.131Z,9.70
2023-03-24T01:55:53.024Z,7.80
2023-03-24T01:58:22.213Z,9.10
2023-03-24T02:00:51.020Z,8.90
2023-03-24T02:03:24.532Z,10.90
2023-03-24T02:08:46.312Z,8.20
2023-03-24T02:11:16.762Z,7.60
2023-03-24T02:13:46.425Z,9.20
2023-03-24T02:16:53.044Z,9.60
2023-03-24T02:19:45.373Z,7.80
2023-03-24T02:22:51.148Z,8.00
2023-03-24T02:25:19.559Z,8.50
2023-03-24T02:28:07.527Z,10.20
2023-03-24T02:30:44.319Z,10.50
2023-03-24T02:34:01.465Z,10.00
2023-03-24T02:36:51.504Z,8.70
2023-03-24T02:39:48.970Z,8.70
2023-03-24T02:42:46.548Z,7.60
2023-03-24T02:45:33.464Z,8.20
2023-03-24T02:48:13.812Z,8.00
2023-03-24T02:51:06.625Z,7.00
2023-03-24T02:54:14.910Z,7.80
2023-03-24T02:56:42.362Z,4.70
2023-03-24T02:59:56.844Z,8.20
2023-03-24T03:02:30.856Z,8.00
2023-03-24T03:05:15.411Z,7.20
2023-03-24T03:07:47.445Z,6.90
2023-03-24T03:10:28.241Z,8.80
2023-03-24T03:13:02.713Z,7.50
2023-03-24T03:15:40.047Z,11.20
2023-03-24T03:18:16.334Z,7.70
2023-03-24T03:20:53.884Z,8.00
2023-03-24T03:23:32.982Z,7.30
2023-03-24T03:26:05.467Z,6.40
2023-03-24T03:28:39.762Z,10.20
2023-03-24T03:31:15.187Z,6.00
2023-03-24T03:33:51.499Z,6.40
2023-03-24T03:36:34.676Z,7.90
2023-03-24T03:39:07.216Z,6.60
2023-03-24T03:41:36.439Z,7.90
2023-03-24T03:44:06.490Z,7.80
2023-03-24T03:46:37.335Z,8.40
2023-03-24T03:49:09.236Z,7.90
2023-03-24T03:51:39.798Z,7.80
2023-03-24T03:54:12.058Z,6.90
2023-03-24T03:56:43.204Z,6.10
2023-03-24T03:59:29.361Z,8.30
2023-03-24T04:01:59.836Z,7.00
2023-03-24T04:04:50.699Z,9.90
2023-03-24T04:07:41.287Z,7.70
2023-03-24T04:10:10.182Z,7.80
2023-03-24T04:17:02.966Z,7.90
2023-03-24T04:19:35.779Z,9.10
2023-03-24T04:22:39.118Z,7.00
2023-03-24T04:25:07.596Z,4.20
2023-03-24T04:27:57.447Z,8.40
2023-03-24T04:30:37.727Z,8.50
2023-03-24T04:33:18.218Z,7.60
2023-03-24T04:36:02.131Z,8.00
2023-03-24T04:38:33.006Z,6.60
2023-03-24T04:41:04.346Z,8.60
2023-03-24T04:43:37.505Z,7.80
2023-03-24T04:46:09.670Z,5.40
2023-03-24T04:48:38.923Z,6.10
2023-03-24T04:51:10.877Z,7.00
2023-03-24T04:53:40.172Z,6.90
2023-03-24T04:56:30.083Z,9.60
2023-03-24T04:58:59.075Z,11.80
2023-03-24T05:01:30.627Z,8.70
2023-03-24T05:04:01.534Z,8.10
2023-03-24T05:06:31.358Z,9.10
2023-03-24T05:09:01.143Z,10.70
2023-03-24T05:11:54.490Z,7.10
2023-03-24T05:14:23.833Z,7.40
2023-03-24T05:16:52.922Z,9.00
2023-03-24T05:19:22.030Z,7.20
2023-03-24T05:21:50.568Z,8.20
2023-03-24T05:24:19.077Z,8.20
2023-03-24T05:26:47.652Z,6.80
2023-03-24T05:29:16.874Z,7.20
2023-03-24T05:31:46.402Z,8.80
2023-03-24T05:34:14.934Z,7.60
2023-03-24T05:36:44.432Z,7.10
2023-03-24T05:39:13.642Z,7.50
2023-03-24T05:41:42.738Z,7.50
2023-03-24T05:44:11.316Z,7.80
2023-03-24T05:46:40.025Z,7.60
2023-03-24T05:49:13.622Z,8.40
2023-03-24T05:51:42.054Z,7.50
2023-03-24T05:54:10.705Z,7.20
2023-03-24T05:56:39.080Z,7.00
2023-03-24T05:59:07.813Z,8.60
2023-03-24T06:01:36.658Z,7.50
2023-03-24T06:04:05.419Z,9.00
2023-03-24T06:06:34.354Z,7.90
2023-03-24T06:09:04.724Z,9.30
2023-03-24T06:11:33.632Z,10.60
2023-03-24T06:14:02.829Z,7.30
2023-03-24T06:16:34.478Z,9.50
2023-03-24T06:19:03.352Z,9.40
2023-03-24T06:21:35.220Z,7.20
2023-03-24T06:24:04.723Z,9.20
2023-03-24T06:26:33.114Z,6.80
2023-03-24T06:29:02.689Z,7.70
2023-03-24T06:31:33.505Z,7.00
2023-03-24T06:34:02.429Z,11.40
2023-03-24T06:36:31.996Z,8.40
2023-03-24T06:39:06.109Z,8.20
2023-03-24T06:41:35.841Z,7.90
2023-03-24T06:44:04.353Z,9.20
2023-03-24T06:46:33.791Z,8.40
2023-03-24T06:49:02.188Z,8.70
2023-03-24T06:51:31.693Z,10.80
2023-03-24T06:54:00.561Z,10.30
2023-03-24T06:56:29.390Z,7.60
2023-03-24T06:58:57.985Z,9.00
2023-03-24T07:01:27.513Z,9.30
2023-03-24T07:03:57.158Z,8.40
2023-03-24T07:06:25.676Z,6.70
2023-03-24T07:08:54.947Z,7.70
2023-03-24T07:11:23.549Z,7.10
2023-03-24T07:13:52.166Z,6.70
2023-03-24T07:16:21.110Z,6.60
2023-03-24T07:18:49.595Z,6.70
2023-03-24T07:21:18.777Z,6.70
2023-03-24T07:23:47.136Z,8.30
2023-03-24T07:26:16.129Z,6.70
2023-03-24T07:28:44.532Z,6.40
2023-03-24T07:31:13.144Z,5.50
2023-03-24T07:33:41.781Z,7.20
2023-03-24T07:36:10.586Z,9.00
2023-03-24T07:38:39.022Z,7.40
2023-03-24T07:41:07.356Z,4.40
2023-03-24T07:43:35.910Z,5.10
2023-03-24T07:46:04.430Z,5.70
2023-03-24T07:48:33.453Z,5.80
2023-03-24T07:51:02.025Z,5.20
2023-03-24T07:53:30.905Z,5.70
2023-03-24T07:56:00.032Z,5.50
2023-03-24T07:58:28.339Z,5.90
2023-03-24T08:00:57.223Z,5.80
2023-03-24T08:03:28.481Z,4.60
2023-03-24T08:05:57.045Z,4.40
2023-03-24T08:08:25.478Z,5.30
2023-03-24T08:10:54.062Z,6.20
2023-03-24T08:13:23.197Z,6.30
2023-03-24T08:15:53.626Z,4.40
2023-03-24T08:18:23.154Z,6.40
2023-03-24T08:20:57.103Z,5.70
2023-03-24T08:23:26.019Z,6.10
2023-03-24T08:25:55.105Z,6.40
2023-03-24T08:28:24.354Z,6.90
2023-03-24T08:30:52.902Z,6.60
2023-03-24T08:33:21.535Z,5.30
2023-03-24T08:35:50.212Z,6.00
2023-03-24T08:38:23.495Z,5.60
2023-03-24T08:40:52.653Z,4.80
2023-03-24T08:43:23.484Z,4.90
2023-03-24T08:45:52.475Z,5.40
2023-03-24T08:48:22.077Z,7.20
2023-03-24T08:50:50.794Z,4.80
2023-03-24T08:53:19.291Z,5.90
2023-03-24T08:55:48.480Z,6.90
2023-03-24T08:58:20.626Z,4.80
2023-03-24T09:00:49.780Z,4.70
2023-03-24T09:03:22.901Z,6.10
2023-03-24T09:05:51.585Z,4.90
2023-03-24T09:08:20.393Z,8.00
2023-03-24T09:10:49.412Z,5.10
2023-03-24T09:13:19.317Z,5.20
2023-03-24T09:15:50.749Z,6.90
2023-03-24T09:18:21.388Z,6.00
2023-03-24T09:20:51.377Z,4.20
2023-03-24T09:23:21.824Z,4.20
2023-03-24T09:25:54.172Z,5.30
2023-03-24T09:28:23.389Z,4.80
2023-03-24T09:30:58.342Z,4.00
2023-03-24T09:33:27.193Z,6.80
2023-03-24T09:36:01.256Z,6.10
2023-03-24T09:38:31.150Z,4.80
2023-03-24T09:41:03.212Z,5.60
2023-03-24T09:43:45.480Z,4.60
2023-03-24T09:46:43.666Z,5.70
2023-03-24T09:49:25.474Z,4.30
2023-03-24T09:52:05.818Z,4.40
2023-03-24T09:54:55.342Z,4.10
2023-03-24T09:57:29.166Z,8.00
2023-03-24T09:59:57.996Z,4.60
2023-03-24T10:02:31.992Z,3.50
2023-03-24T10:05:00.823Z,3.30
2023-03-24T10:07:47.280Z,3.60
2023-03-24T10:10:34.072Z,3.20
2023-03-24T10:13:22.124Z,2.40
2023-03-24T10:16:32.310Z,3.50
2023-03-24T10:19:29.963Z,2.80
2023-03-24T10:22:31.673Z,3.40
2023-03-24T10:25:24.333Z,3.20
2023-03-24T10:28:06.031Z,3.30
2023-03-24T10:30:41.865Z,4.10
2023-03-24T10:33:32.380Z,3.20
2023-03-24T10:36:11.871Z,3.60
2023-03-24T10:38:40.897Z,4.90
2023-03-24T10:41:19.557Z,34.10
2023-03-24T10:43:51.146Z,5.70
2023-03-24T10:46:26.400Z,2.90
2023-03-24T10:49:12.893Z,4.10
2023-03-24T10:51:49.874Z,5.40
2023-03-24T10:54:20.843Z,3.50
2023-03-24T10:57:06.465Z,4.00
2023-03-24T10:59:51.069Z,3.60
2023-03-24T11:02:24.778Z,3.90
2023-03-24T11:04:59.691Z,4.10
2023-03-24T11:07:46.073Z,4.60
2023-03-24T11:10:17.624Z,4.10
2023-03-24T11:12:58.074Z,4.30
2023-03-24T11:15:30.670Z,4.00
2023-03-24T11:18:16.604Z,3.70
2023-03-24T11:20:48.544Z,5.10
2023-03-24T11:23:35.732Z,5.40
2023-03-24T11:26:23.052Z,4.30
2023-03-24T11:29:01.456Z,4.80
2023-03-24T11:31:32.697Z,4.20
2023-03-24T11:34:09.692Z,5.70
2023-03-24T11:36:45.380Z,5.00
2023-03-24T11:39:19.549Z,7.70
2023-03-24T11:42:02.166Z,4.00
2023-03-24T11:44:42.373Z,5.00
2023-03-24T11:47:25.339Z,5.90
2023-03-24T11:50:03.615Z,5.00
2023-03-24T11:52:39.847Z,4.50
2023-03-24T11:55:38.004Z,4.80
2023-03-24T11:58:36.066Z,5.20
2023-03-24T12:01:20.630Z,4.80
2023-03-24T12:04:08.684Z,6.00
2023-03-24T12:06:49.238Z,6.10
2023-03-24T12:09:27.834Z,5.20
2023-03-24T12:12:14.372Z,4.40
2023-03-24T12:15:27.283Z,7.80
2023-03-24T12:18:17.027Z,4.80
2023-03-24T12:20:59.544Z,5.70
2023-03-24T12:23:55.637Z,4.60
2023-03-24T12:26:26.384Z,4.00
2023-03-24T12:29:16.874Z,5.00
2023-03-24T12:32:14.356Z,7.20
2023-03-24T12:35:00.405Z,4.60
2023-03-24T12:37:43.422Z,5.10
2023-03-24T12:40:32.436Z,4.70
2023-03-24T12:43:26.138Z,5.20
2023-03-24T12:45:57.644Z,4.80
2023-03-24T12:49:03.094Z,4.80
2023-03-24T12:51:53.445Z,5.50
2023-03-24T12:54:36.674Z,4.10
2023-03-24T12:57:12.037Z,6.50
2023-03-24T12:59:58.531Z,4.30
2023-03-24T13:02:35.935Z,4.00
2023-03-24T13:05:17.060Z,5.00
2023-03-24T13:07:48.018Z,4.00
2023-03-24T13:10:26.451Z,4.20
2023-03-24T13:13:04.251Z,5.30
2023-03-24T13:15:49.067Z,4.90
2023-03-24T13:18:38.056Z,3.80
2023-03-24T13:21:12.418Z,5.10
2023-03-24T13:23:58.014Z,5.70
2023-03-24T13:26:29.742Z,4.30
2023-03-24T13:29:21.311Z,7.00
2023-03-24T13:32:05.617Z,4.90
2023-03-24T13:34:41.548Z,4.20
2023-03-24T13:37:24.823Z,4.00
2023-03-24T13:39:58.784Z,3.80
2023-03-24T13:42:43.942Z,3.00
2023-03-24T13:45:40.192Z,3.30
2023-03-24T13:48:29.561Z,3.10
2023-03-24T13:51:08.324Z,5.00
2023-03-24T13:53:50.288Z,2.50
2023-03-24T13:56:36.282Z,2.50
2023-03-24T13:59:32.327Z,2.50
2023-03-24T14:02:15.901Z,2.60
2023-03-24T14:05:06.957Z,2.30
2023-03-24T14:07:47.475Z,2.10
2023-03-24T14:10:20.852Z,3.50
2023-03-24T14:12:59.008Z,2.70
2023-03-24T14:15:32.410Z,3.10
2023-03-24T14:18:37.886Z,2.00
2023-03-24T14:21:08.803Z,1.90
2023-03-24T14:23:40.510Z,1.60
2023-03-24T14:26:34.834Z,1.70
2023-03-24T14:29:04.085Z,2.10
2023-03-24T14:31:36.527Z,2.30
2023-03-24T14:34:21.488Z,3.00
2023-03-24T14:37:00.538Z,3.70
2023-03-24T14:39:48.030Z,2.30
2023-03-24T14:42:48.846Z,3.30
2023-03-24T14:45:52.150Z,2.60
2023-03-24T14:48:38.300Z,1.80
2023-03-24T14:51:12.236Z,2.20
2023-03-24T14:53:41.866Z,2.80
2023-03-24T14:56:15.786Z,1.60
2023-03-24T14:58:49.119Z,2.20
2023-03-24T15:01:18.781Z,2.10
2023-03-24T15:04:06.465Z,2.00
2023-03-24T15:06:47.306Z,2.80
2023-03-24T15:09:18.740Z,3.00
2023-03-24T15:16:30.011Z,4.00
2023-03-24T15:19:09.132Z,3.30
2023-03-24T15:21:49.672Z,4.90
2023-03-24T15:24:41.903Z,3.50
2023-03-24T15:27:38.644Z,3.50
2023-03-24T15:30:15.320Z,2.40
2023-03-24T15:32:48.012Z,5.80
2023-03-24T15:35:20.745Z,5.90
2023-03-24T15:37:56.846Z,4.60
2023-03-24T15:40:29.895Z,4.10
2023-03-24T15:43:05.154Z,3.20
2023-03-24T15:45:38.110Z,4.40
2023-03-24T15:48:16.384Z,4.50
2023-03-24T15:51:01.443Z,3.60
2023-03-24T15:53:40.102Z,3.30
2023-03-24T15:56:27.196Z,4.70
2023-03-24T15:59:06.854Z,3.30
2023-03-24T16:01:38.927Z,7.20
2023-03-24T16:04:14.979Z,9.20
2023-03-24T16:06:50.089Z,4.60
2023-03-24T16:09:22.634Z,3.20
2023-03-24T16:12:21.929Z,5.10
2023-03-24T16:14:50.619Z,3.00
2023-03-24T16:17:19.469Z,4.60
2023-03-24T16:19:47.902Z,4.80
2023-03-24T16:22:16.416Z,4.10
2023-03-24T16:24:45.699Z,5.80
2023-03-24T16:27:15.799Z,6.90
2023-03-24T16:29:44.759Z,4.00
2023-03-24T16:32:13.723Z,4.30
2023-03-24T16:34:42.561Z,5.40
2023-03-24T16:37:10.974Z,4.10
2023-03-24T16:39:40.604Z,5.00
2023-03-24T16:42:10.050Z,4.00
2023-03-24T16:44:39.251Z,8.00
2023-03-24T16:47:11.895Z,5.50
2023-03-24T16:49:40.584Z,6.10
2023-03-24T16:52:16.822Z,7.50
2023-03-24T16:54:46.671Z,5.60
2023-03-24T16:57:16.000Z,5.60
2023-03-24T16:59:44.522Z,8.20
2023-03-24T17:02:14.354Z,6.20
2023-03-24T17:04:43.943Z,4.90
2023-03-24T17:07:12.464Z,6.40
2023-03-24T17:09:41.191Z,5.60
2023-03-24T17:12:11.335Z,6.50
2023-03-24T17:14:41.061Z,7.70
2023-03-24T17:17:13.388Z,6.80
2023-03-24T17:19:43.390Z,4.90
2023-03-24T17:22:18.103Z,4.40
2023-03-24T17:24:48.562Z,5.50
2023-03-24T17:27:20.633Z,5.60
2023-03-24T17:29:49.785Z,5.10
2023-03-24T17:32:20.524Z,5.90
2023-03-24T17:34:52.415Z,3.90
2023-03-24T17:37:21.064Z,4.80
2023-03-24T17:39:52.199Z,4.60
2023-03-24T17:42:21.127Z,8.70
2023-03-24T17:44:51.620Z,5.00
2023-03-24T17:47:21.577Z,4.80
2023-03-24T17:49:51.145Z,5.00
2023-03-24T17:52:23.618Z,5.70
2023-03-24T17:54:57.783Z,5.30
2023-03-24T17:57:29.639Z,4.30
2023-03-24T18:00:01.006Z,6.60
2023-03-24T18:02:31.350Z,3.90
2023-03-24T18:05:02.243Z,4.70
2023-03-24T18:07:31.479Z,4.90
2023-03-24T18:10:03.090Z,6.50
2023-03-24T18:12:39.723Z,5.50
2023-03-24T18:15:09.684Z,8.20
2023-03-24T18:17:45.592Z,5.50
2023-03-24T18:20:17.183Z,5.10
2023-03-24T18:22:47.696Z,9.60
2023-03-24T18:25:21.755Z,7.30
2023-03-24T18:27:59.431Z,7.20
2023-03-24T18:30:33.623Z,7.60
2023-03-24T18:33:03.649Z,6.30
2023-03-24T18:35:36.135Z,8.50
2023-03-24T18:38:06.158Z,14.70
2023-03-24T18:40:35.715Z,12.20
2023-03-24T18:43:05.778Z,11.80
2023-03-24T18:45:36.665Z,11.70
2023-03-24T18:48:06.806Z,10.80
2023-03-24T18:50:41.570Z,15.60
2023-03-24T18:53:11.574Z,12.20
2023-03-24T18:55:46.961Z,11.70
2023-03-24T18:58:19.213Z,12.60
2023-03-24T19:00:51.905Z,11.80
2023-03-24T19:03:24.651Z,19.20
2023-03-24T19:05:55.310Z,15.60
2023-03-24T19:08:24.911Z,15.10
2023-03-24T19:10:57.910Z,16.80
2023-03-24T19:13:28.063Z,14.80
2023-03-24T19:16:00.585Z,16.80
2023-03-24T19:18:30.371Z,18.30
2023-03-24T19:21:02.636Z,18.20
2023-03-24T19:23:33.152Z,15.30
2023-03-24T19:26:04.577Z,16.00
2023-03-24T19:28:37.738Z,16.30
2023-03-24T19:31:11.976Z,16.70
2023-03-24T19:33:42.180Z,16.60
2023-03-24T19:36:19.268Z,17.80
2023-03-24T19:38:50.180Z,16.70
2023-03-24T19:41:20.176Z,18.50
2023-03-24T19:43:50.179Z,15.70
2023-03-24T19:46:22.151Z,17.30
2023-03-24T19:48:52.737Z,16.60
2023-03-24T19:51:25.061Z,16.70
2023-03-24T19:53:57.128Z,20.00
2023-03-24T19:56:27.835Z,17.90
2023-03-24T19:58:59.358Z,16.90
2023-03-24T20:01:35.913Z,16.90
2023-03-24T20:04:11.310Z,16.10
2023-03-24T20:06:44.811Z,18.40
2023-03-24T20:09:17.351Z,22.10
2023-03-24T20:11:56.867Z,41.60
2023-03-24T20:14:32.942Z,57.80
2023-03-24T20:17:05.135Z,90.70
2023-03-24T20:19:41.069Z,95.20
2023-03-24T20:22:16.474Z,52.10
2023-03-24T20:24:48.455Z,60.90
2023-03-24T20:27:20.547Z,40.30
2023-03-24T20:29:53.240Z,109.90
2023-03-24T20:32:24.522Z,87.60
2023-03-24T20:34:57.830Z,54.20
2023-03-24T20:37:32.083Z,43.20
2023-03-24T20:40:08.034Z,29.10
2023-03-24T20:42:40.227Z,24.60
2023-03-24T20:45:12.917Z,28.30
2023-03-24T20:47:47.463Z,20.40
2023-03-24T20:50:21.585Z,21.40
2023-03-24T20:52:58.993Z,17.60
2023-03-24T20:55:35.295Z,17.40
2023-03-24T20:58:09.141Z,21.70
2023-03-24T21:00:42.801Z,16.30
2023-03-24T21:03:13.929Z,13.90
2023-03-24T21:05:43.412Z,15.70
2023-03-24T21:08:14.676Z,17.30
2023-03-24T21:10:45.691Z,17.50
2023-03-24T21:13:21.674Z,17.40
2023-03-24T21:15:54.448Z,15.40
2023-03-24T21:18:28.951Z,15.00
2023-03-24T21:21:04.510Z,16.60
2023-03-24T21:23:39.985Z,16.80
2023-03-24T21:26:16.970Z,18.80
2023-03-24T21:28:47.745Z,17.00
2023-03-24T21:31:21.958Z,16.20
2023-03-24T21:33:53.631Z,17.20
2023-03-24T21:36:26.838Z,18.30
2023-03-24T21:38:56.948Z,18.10
2023-03-24T21:41:26.679Z,20.60
2023-03-24T21:44:00.979Z,19.40
2023-03-24T21:46:33.480Z,18.40
2023-03-24T21:49:15.491Z,20.80
2023-03-24T21:52:10.484Z,21.90
2023-03-24T21:54:46.364Z,53.30
2023-03-24T21:57:18.328Z,32.80
2023-03-24T21:59:47.867Z,32.20
2023-03-24T22:02:19.676Z,28.30
2023-03-24T22:04:49.209Z,21.70
2023-03-24T22:07:18.911Z,19.70
2023-03-24T22:09:52.123Z,21.60
2023-03-24T22:12:40.103Z,24.90
2023-03-24T22:15:13.454Z,20.40
2023-03-24T22:17:42.248Z,22.40
2023-03-24T22:20:13.939Z,18.50
2023-03-24T22:22:43.477Z,23.40
2023-03-24T22:25:19.432Z,22.60
2023-03-24T22:27:53.013Z,21.40
2023-03-24T22:33:15.662Z,24.50
2023-03-24T22:35:44.590Z,23.30
2023-03-24T22:38:15.552Z,25.40
2023-03-24T22:40:50.517Z,25.00
2023-03-24T22:43:22.038Z,26.90
2023-03-24T22:45:50.777Z,23.50
2023-03-24T22:48:21.243Z,30.00
2023-03-24T22:50:50.234Z,24.50
2023-03-24T22:53:19.209Z,26.30
2023-03-24T22:55:48.664Z,41.90
2023-03-24T22:58:18.440Z,80.20
2023-03-24T23:00:51.042Z,54.70
2023-03-24T23:03:19.888Z,52.90
2023-03-24T23:05:48.738Z,39.90
2023-03-24T23:08:20.702Z,29.60
2023-03-24T23:10:49.655Z,25.30
2023-03-24T23:14:05.242Z,25.80
2023-03-24T23:16:38.366Z,24.70
2023-03-24T23:19:09.397Z,26.10
2023-03-24T23:21:38.661Z,24.50
2023-03-24T23:24:07.813Z,29.20
2023-03-24T23:26:37.209Z,24.50
2023-03-24T23:29:06.578Z,23.50
2023-03-24T23:31:36.880Z,26.00
2023-03-24T23:34:11.820Z,27.50
2023-03-24T23:36:45.110Z,26.10
2023-03-24T23:39:14.715Z,26.80
2023-03-24T23:41:43.843Z,24.80
2023-03-24T23:44:15.696Z,22.50
2023-03-24T23:46:44.708Z,23.30
2023-03-24T23:49:13.546Z,28.20
2023-03-24T23:51:42.366Z,25.00
2023-03-24T23:54:11.281Z,25.60
2023-03-24T23:56:40.069Z,29.00
2023-03-24T23:59:10.264Z,31.90
